Time;durP1;ratioP1;P1;durP2;ratioP2;P2;SDS_P1;SDS_P2;PMS_P1;PMS_P2;Temp;Humidity;BMP_temperature;BMP_pressure;BME280_temperature;BME280_humidity;BME280_pressure;Samples;Min_cycle;Max_cycle;Signal;HPM_P1;HPM_P2
2022/03/15 00:01:23;;;;;;;25.10;11.50;;;9.40;99.90;;;;;;5096274;28;20435;-57
2022/03/15 00:03:50;;;;;;;16.43;10.53;;;9.40;99.90;;;;;;5096045;28;20454;-62
2022/03/15 00:06:17;;;;;;;20.00;11.40;;;9.40;99.90;;;;;;5096397;28;20472;-61
2022/03/15 00:08:44;;;;;;;26.50;11.07;;;9.30;99.90;;;;;;5096141;28;20486;-63
2022/03/15 00:11:12;;;;;;;20.03;11.77;;;9.30;99.90;;;;;;5095444;28;20966;-60
2022/03/15 00:13:40;;;;;;;17.63;12.23;;;9.40;99.90;;;;;;5094834;28;20471;-62
2022/03/15 00:16:09;;;;;;;19.67;12.10;;;9.30;99.90;;;;;;5095467;28;20448;-56
2022/03/15 00:18:37;;;;;;;24.73;12.20;;;9.10;99.90;;;;;;5095710;28;20466;-57
2022/03/15 00:21:08;;;;;;;26.70;12.67;;;9.10;99.90;;;;;;5095654;28;20462;-57
2022/03/15 00:23:35;;;;;;;21.60;13.00;;;9.10;99.90;;;;;;5095192;28;20422;-59
2022/03/15 00:26:02;;;;;;;21.93;11.07;;;9.10;99.90;;;;;;5095630;28;20454;-61
2022/03/15 00:28:30;;;;;;;23.87;11.73;;;9.10;99.90;;;;;;5095069;28;20477;-57
2022/03/15 00:30:59;;;;;;;21.17;12.30;;;9.00;99.90;;;;;;5095220;28;20990;-61
2022/03/15 00:33:26;;;;;;;26.57;12.40;;;9.00;99.90;;;;;;5094608;28;20450;-60
2022/03/15 00:35:53;;;;;;;24.03;11.67;;;9.00;99.90;;;;;;5094990;28;20466;-60
2022/03/15 00:38:20;;;;;;;18.20;10.40;;;9.00;99.90;;;;;;5095018;28;20419;-63
2022/03/15 00:40:47;;;;;;;20.43;11.90;;;9.00;99.90;;;;;;5095125;28;20426;-57
2022/03/15 00:43:14;;;;;;;25.13;12.37;;;9.00;99.90;;;;;;5095066;28;20434;-59
2022/03/15 00:45:41;;;;;;;20.77;12.70;;;9.00;99.90;;;;;;5095414;28;20495;-59
2022/03/15 00:48:09;;;;;;;19.23;10.13;;;9.00;99.90;;;;;;5094871;28;20472;-63
2022/03/15 00:50:41;;;;;;;19.73;11.03;;;8.90;99.90;;;;;;5094949;28;20484;-58
2022/03/15 00:53:09;;;;;;;17.60;10.43;;;8.90;99.90;;;;;;5094978;28;20478;-58
2022/03/15 00:55:39;;;;;;;23.20;11.50;;;8.90;99.90;;;;;;5095347;28;20446;-56
2022/03/15 00:58:06;;;;;;;15.30;10.43;;;8.90;99.90;;;;;;5095717;28;20474;-59
2022/03/15 01:00:35;;;;;;;21.20;10.10;;;8.90;99.90;;;;;;5095557;28;20450;-62
2022/03/15 01:03:02;;;;;;;21.10;12.23;;;8.90;99.90;;;;;;5094995;28;20434;-60
2022/03/15 01:05:30;;;;;;;21.10;10.17;;;8.80;99.90;;;;;;5095088;28;20434;-61
2022/03/15 01:07:57;;;;;;;21.90;11.40;;;8.90;99.90;;;;;;5095654;28;20448;-60
2022/03/15 01:10:27;;;;;;;17.70;9.97;;;8.90;99.90;;;;;;5095300;28;21082;-61
2022/03/15 01:12:54;;;;;;;18.70;10.80;;;8.90;99.90;;;;;;5095639;28;20478;-59
2022/03/15 01:15:23;;;;;;;16.63;10.37;;;8.90;99.90;;;;;;5095086;28;20519;-60
2022/03/15 01:17:49;;;;;;;20.77;10.23;;;8.90;99.90;;;;;;5094780;28;20443;-61
2022/03/15 01:20:16;;;;;;;19.70;10.33;;;8.90;99.90;;;;;;5094417;28;20435;-60
2022/03/15 01:22:44;;;;;;;21.47;12.23;;;8.80;99.90;;;;;;5095047;28;20446;-59
2022/03/15 01:25:11;;;;;;;20.13;12.10;;;8.80;99.90;;;;;;5094713;28;20462;-56
2022/03/15 01:27:40;;;;;;;22.27;10.37;;;8.70;99.90;;;;;;5095017;28;20456;-60
2022/03/15 01:30:08;;;;;;;20.47;10.50;;;8.70;99.90;;;;;;5094706;28;20474;-58
2022/03/15 01:32:38;;;;;;;28.40;12.13;;;8.70;99.90;;;;;;5095131;28;20761;-60
2022/03/15 01:35:05;;;;;;;17.47;11.20;;;8.60;99.90;;;;;;5094627;28;20450;-60
2022/03/15 01:37:32;;;;;;;20.23;11.53;;;8.60;99.90;;;;;;5094406;28;20477;-59
2022/03/15 01:40:00;;;;;;;31.37;12.87;;;8.60;99.90;;;;;;5094516;28;20473;-61
2022/03/15 01:42:27;;;;;;;25.23;11.30;;;8.50;99.90;;;;;;5094228;28;20507;-61
2022/03/15 01:44:57;;;;;;;20.40;11.87;;;8.50;99.90;;;;;;5094626;28;20427;-58
2022/03/15 01:47:23;;;;;;;25.40;11.40;;;8.40;99.90;;;;;;5094845;28;20439;-60
2022/03/15 01:50:04;;;;;;;21.87;11.80;;;8.40;99.90;;;;;;5094558;28;20508;-61
2022/03/15 01:52:31;;;;;;;18.10;10.60;;;8.40;99.90;;;;;;5094752;28;20426;-62
2022/03/15 01:54:59;;;;;;;22.53;11.03;;;8.40;99.90;;;;;;5094750;28;20557;-58
2022/03/15 01:57:28;;;;;;;23.07;11.53;;;8.40;99.90;;;;;;5095520;28;20468;-63
2022/03/15 01:59:55;;;;;;;22.07;12.20;;;8.40;99.90;;;;;;5094987;28;20565;-60
2022/03/15 02:02:22;;;;;;;27.90;11.30;;;8.40;99.90;;;;;;5095124;28;20438;-58
2022/03/15 02:04:48;;;;;;;21.93;10.57;;;8.30;99.90;;;;;;5095259;28;20796;-57
2022/03/15 02:07:15;;;;;;;21.23;10.77;;;8.30;99.90;;;;;;5096430;28;20435;-62
2022/03/15 02:09:42;;;;;;;16.30;9.97;;;8.20;99.90;;;;;;5096297;28;20485;-60
2022/03/15 02:12:14;;;;;;;26.23;10.80;;;8.30;99.90;;;;;;5095707;28;20458;-61
2022/03/15 02:14:40;;;;;;;19.80;11.00;;;8.30;99.90;;;;;;5095087;28;20456;-59
2022/03/15 02:17:10;;;;;;;22.03;11.97;;;8.30;99.90;;;;;;5097330;28;20492;-64
2022/03/15 02:19:37;;;;;;;21.10;12.30;;;8.30;99.90;;;;;;5098178;28;20450;-59
2022/03/15 02:22:07;;;;;;;18.23;10.70;;;8.40;99.90;;;;;;5098165;28;20485;-59
2022/03/15 02:24:35;;;;;;;21.07;10.70;;;8.40;99.90;;;;;;5098084;28;20504;-57
2022/03/15 02:27:02;;;;;;;23.23;10.43;;;8.40;99.90;;;;;;5097964;28;20442;-59
2022/03/15 02:29:29;;;;;;;23.07;10.07;;;8.50;99.90;;;;;;5097345;28;20486;-62
2022/03/15 02:31:56;;;;;;;18.80;11.03;;;8.50;99.90;;;;;;5097386;28;20442;-58
2022/03/15 02:34:22;;;;;;;20.23;12.07;;;8.50;99.90;;;;;;5097377;28;20528;-57
2022/03/15 02:36:49;;;;;;;22.10;12.10;;;8.50;99.90;;;;;;5097597;28;20457;-60
2022/03/15 02:39:17;;;;;;;21.70;11.73;;;8.50;99.90;;;;;;5097203;28;20470;-63
2022/03/15 02:41:46;;;;;;;21.63;11.87;;;8.40;99.90;;;;;;5097214;28;20434;-58
2022/03/15 02:44:12;;;;;;;19.77;12.07;;;8.40;99.90;;;;;;5097392;28;20466;-53
2022/03/15 02:46:40;;;;;;;20.30;11.40;;;8.40;99.90;;;;;;5097107;28;20468;-59
2022/03/15 02:49:07;;;;;;;21.60;11.70;;;8.30;99.90;;;;;;5096987;28;20508;-59
2022/03/15 02:51:33;;;;;;;23.43;12.50;;;8.30;99.90;;;;;;5097195;28;20438;-60
2022/03/15 02:54:07;;;;;;;22.43;11.67;;;8.30;99.90;;;;;;5096940;28;20454;-60
2022/03/15 02:56:35;;;;;;;23.67;11.47;;;8.40;99.90;;;;;;5097622;28;20496;-57
2022/03/15 02:59:04;;;;;;;17.87;9.80;;;8.30;99.90;;;;;;5097429;28;20449;-62
2022/03/15 03:01:31;;;;;;;20.03;12.50;;;8.30;99.90;;;;;;5096413;28;20467;-58
2022/03/15 03:03:59;;;;;;;21.10;11.67;;;8.30;99.90;;;;;;5097539;28;20418;-60
2022/03/15 03:06:27;;;;;;;20.00;10.50;;;8.30;99.90;;;;;;5097122;28;20490;-61
2022/03/15 03:08:55;;;;;;;23.40;11.57;;;8.30;99.90;;;;;;5096855;28;20451;-61
2022/03/15 03:11:22;;;;;;;26.60;12.70;;;8.30;99.90;;;;;;5096837;28;20439;-60
2022/03/15 03:13:52;;;;;;;28.63;13.33;;;8.30;99.90;;;;;;5096999;28;20439;-61
2022/03/15 03:16:19;;;;;;;23.17;12.63;;;8.20;99.90;;;;;;5096821;28;20426;-62
2022/03/15 03:18:45;;;;;;;22.97;11.30;;;8.20;99.90;;;;;;5096540;28;20461;-63
2022/03/15 03:21:12;;;;;;;21.57;12.00;;;8.20;99.90;;;;;;5096546;28;20446;-61
2022/03/15 03:23:39;;;;;;;19.93;11.50;;;8.20;99.90;;;;;;5096345;28;20539;-61
2022/03/15 03:26:07;;;;;;;21.23;11.67;;;8.20;99.90;;;;;;5096567;28;20678;-59
2022/03/15 03:28:36;;;;;;;21.90;10.70;;;8.20;99.90;;;;;;5096407;28;20470;-60
2022/03/15 03:31:05;;;;;;;24.57;13.60;;;8.10;99.90;;;;;;5096398;28;20467;-58
2022/03/15 03:33:32;;;;;;;23.70;11.87;;;8.10;99.90;;;;;;5096584;28;20442;-62
2022/03/15 03:35:59;;;;;;;22.87;13.23;;;8.10;99.90;;;;;;5096432;28;20458;-60
2022/03/15 03:38:25;;;;;;;22.23;11.70;;;8.00;99.90;;;;;;5096277;28;20448;-62
2022/03/15 03:40:52;;;;;;;21.63;12.47;;;8.00;99.90;;;;;;5095771;28;20524;-62
2022/03/15 03:43:20;;;;;;;24.03;13.23;;;7.90;99.90;;;;;;5095968;28;20461;-61
2022/03/15 03:45:46;;;;;;;24.30;13.63;;;7.90;99.90;;;;;;5095830;28;20489;-58
2022/03/15 03:48:14;;;;;;;20.10;11.80;;;7.90;99.90;;;;;;5095975;28;20435;-61
2022/03/15 03:50:42;;;;;;;19.93;12.20;;;7.90;99.90;;;;;;5096236;28;20500;-61
2022/03/15 03:53:09;;;;;;;22.57;12.20;;;7.80;99.90;;;;;;5095913;28;20443;-61
2022/03/15 03:55:38;;;;;;;29.17;14.67;;;7.80;99.90;;;;;;5095703;28;20514;-59
2022/03/15 03:58:06;;;;;;;22.23;12.60;;;7.70;99.90;;;;;;5095534;28;20467;-60
2022/03/15 04:00:33;;;;;;;19.77;12.07;;;7.70;99.90;;;;;;5095779;28;20454;-63
2022/03/15 04:03:01;;;;;;;27.97;14.77;;;7.70;99.90;;;;;;5095955;28;20478;-61
2022/03/15 04:05:35;;;;;;;25.83;13.20;;;7.70;99.90;;;;;;5096114;28;20422;-61
2022/03/15 04:08:02;;;;;;;27.70;13.60;;;7.60;99.90;;;;;;5096025;28;20473;-59
2022/03/15 04:10:30;;;;;;;22.63;12.33;;;7.60;99.90;;;;;;5095114;28;20478;-57
2022/03/15 04:12:58;;;;;;;28.47;12.23;;;7.60;99.90;;;;;;5095435;28;20430;-63
2022/03/15 04:15:25;;;;;;;27.47;14.87;;;7.60;99.90;;;;;;5095546;28;20473;-60
2022/03/15 04:17:54;;;;;;;27.70;13.70;;;7.70;99.90;;;;;;5095509;28;20470;-63
2022/03/15 04:20:21;;;;;;;26.60;12.53;;;7.60;99.90;;;;;;5096155;28;20457;-62
2022/03/15 04:22:49;;;;;;;23.77;12.53;;;7.50;99.90;;;;;;5095472;28;20442;-60
2022/03/15 04:25:19;;;;;;;26.23;13.20;;;7.50;99.90;;;;;;5094759;28;20470;-63
2022/03/15 04:27:46;;;;;;;27.60;13.33;;;7.40;99.90;;;;;;5095036;28;20418;-63
2022/03/15 04:30:14;;;;;;;27.70;13.80;;;7.40;99.90;;;;;;5094652;28;20810;-63
2022/03/15 04:32:40;;;;;;;23.40;12.30;;;7.30;99.90;;;;;;5094567;28;20457;-64
2022/03/15 04:35:08;;;;;;;28.20;13.33;;;7.30;99.90;;;;;;5095162;28;20481;-63
2022/03/15 04:37:34;;;;;;;19.70;13.13;;;7.30;99.90;;;;;;5095022;28;20472;-60
2022/03/15 04:40:03;;;;;;;28.13;13.80;;;7.20;99.90;;;;;;5093694;28;20442;-62
2022/03/15 04:42:30;;;;;;;27.10;14.80;;;7.20;99.90;;;;;;5094315;28;20476;-59
2022/03/15 04:44:57;;;;;;;24.20;12.90;;;7.10;99.90;;;;;;5094909;28;20462;-59
2022/03/15 04:47:23;;;;;;;27.03;15.73;;;7.10;99.90;;;;;;5095130;28;20462;-62
2022/03/15 04:49:50;;;;;;;35.33;14.10;;;7.10;99.90;;;;;;5094718;28;20485;-60
2022/03/15 04:52:17;;;;;;;24.10;12.37;;;7.10;99.90;;;;;;5095304;28;20458;-60
2022/03/15 04:54:44;;;;;;;25.80;13.20;;;7.10;99.90;;;;;;5095847;28;20438;-61
2022/03/15 04:57:12;;;;;;;25.27;13.33;;;7.10;99.90;;;;;;5095925;28;20439;-60
2022/03/15 04:59:39;;;;;;;26.70;15.23;;;7.10;99.90;;;;;;5095225;28;20446;-63
2022/03/15 05:02:06;;;;;;;28.33;13.27;;;7.00;99.90;;;;;;5095994;28;20815;-61
2022/03/15 05:04:34;;;;;;;24.43;13.67;;;7.00;99.90;;;;;;5095277;28;20469;-62
2022/03/15 05:07:01;;;;;;;24.40;14.30;;;6.90;99.90;;;;;;5095547;28;20458;-60
2022/03/15 05:09:33;;;;;;;22.60;13.60;;;6.90;99.90;;;;;;5094236;28;20470;-63
2022/03/15 05:12:04;;;;;;;27.07;13.47;;;7.00;99.90;;;;;;5094301;28;20465;-62
2022/03/15 05:14:36;;;;;;;25.30;13.00;;;6.90;99.90;;;;;;5093998;28;20446;-57
2022/03/15 05:17:03;;;;;;;33.13;12.97;;;6.90;99.90;;;;;;5094893;28;20422;-61
2022/03/15 05:19:30;;;;;;;24.10;13.50;;;6.80;99.90;;;;;;5093930;28;20446;-60
2022/03/15 05:21:57;;;;;;;31.93;14.10;;;6.80;99.90;;;;;;5093503;28;20470;-59
2022/03/15 05:24:27;;;;;;;48.53;14.60;;;6.90;99.90;;;;;;5093665;28;20458;-59
2022/03/15 05:26:53;;;;;;;35.40;14.10;;;6.80;99.90;;;;;;5093269;28;20463;-57
2022/03/15 05:29:21;;;;;;;25.60;14.00;;;6.80;99.90;;;;;;5093804;28;20426;-57
2022/03/15 05:31:51;;;;;;;21.83;12.53;;;6.80;99.90;;;;;;5078144;28;20497;-61
2022/03/15 05:34:18;;;;;;;28.50;13.57;;;6.70;99.90;;;;;;5082449;28;20442;-60
2022/03/15 05:36:45;;;;;;;24.17;12.70;;;6.70;99.90;;;;;;5083089;28;20499;-66
2022/03/15 05:39:12;;;;;;;29.47;14.80;;;6.70;99.90;;;;;;5082849;28;20841;-65
2022/03/15 05:41:40;;;;;;;24.93;14.33;;;6.70;99.90;;;;;;5083201;28;20446;-64
2022/03/15 05:44:07;;;;;;;22.97;13.70;;;6.70;99.90;;;;;;5083087;28;20474;-62
2022/03/15 05:46:34;;;;;;;27.53;14.93;;;6.70;99.90;;;;;;5078918;28;20477;-62
2022/03/15 05:49:02;;;;;;;23.03;13.13;;;6.70;99.90;;;;;;5074344;28;20539;-65
2022/03/15 05:51:29;;;;;;;23.90;13.93;;;6.80;99.90;;;;;;5077587;28;20481;-63
2022/03/15 05:53:56;;;;;;;25.30;14.07;;;6.90;99.90;;;;;;5078265;28;20473;-63
2022/03/15 05:56:23;;;;;;;23.93;14.40;;;6.90;99.90;;;;;;5078332;28;20422;-63
2022/03/15 05:58:50;;;;;;;24.43;13.70;;;6.90;99.90;;;;;;5079172;28;20458;-64
2022/03/15 06:01:17;;;;;;;22.73;14.17;;;7.00;99.90;;;;;;5078457;28;20864;-63
2022/03/15 06:03:44;;;;;;;22.03;13.60;;;7.00;99.90;;;;;;5078895;28;20438;-63
2022/03/15 06:06:15;;;;;;;26.93;13.47;;;7.20;99.90;;;;;;5081885;28;20466;-60
2022/03/15 06:08:41;;;;;;;26.27;13.40;;;7.40;99.90;;;;;;5081866;28;20484;-62
2022/03/15 06:11:08;;;;;;;26.73;13.90;;;7.40;99.90;;;;;;5081773;28;20548;-60
2022/03/15 06:13:35;;;;;;;26.80;14.13;;;7.40;99.90;;;;;;5080876;28;20450;-63
2022/03/15 06:16:02;;;;;;;25.73;13.47;;;7.50;99.90;;;;;;5080748;28;20442;-62
2022/03/15 06:18:29;;;;;;;22.37;12.90;;;7.40;99.90;;;;;;5081559;28;20430;-63
2022/03/15 06:20:56;;;;;;;27.73;14.80;;;7.40;99.90;;;;;;5081442;28;20461;-62
2022/03/15 06:23:24;;;;;;;25.90;13.40;;;7.40;99.90;;;;;;5081184;28;20474;-62
2022/03/15 06:25:50;;;;;;;28.13;13.30;;;7.40;99.90;;;;;;5080515;28;20442;-62
2022/03/15 06:28:17;;;;;;;25.17;14.87;;;7.40;99.90;;;;;;5081072;28;20470;-62
2022/03/15 06:30:44;;;;;;;28.23;13.70;;;7.40;99.90;;;;;;5081207;28;20488;-62
2022/03/15 06:33:11;;;;;;;28.20;13.80;;;7.40;99.90;;;;;;5081165;28;20474;-62
2022/03/15 06:35:38;;;;;;;31.60;14.20;;;7.40;99.90;;;;;;5081070;28;20422;-62
2022/03/15 06:38:05;;;;;;;27.17;13.30;;;7.30;99.90;;;;;;5080638;28;20446;-62
2022/03/15 06:40:33;;;;;;;25.13;13.43;;;7.30;99.90;;;;;;5080850;28;20468;-62
2022/03/15 06:43:02;;;;;;;30.50;16.03;;;7.30;99.90;;;;;;5081603;28;20833;-62
2022/03/15 06:45:28;;;;;;;25.10;14.00;;;7.30;99.90;;;;;;5083074;28;20481;-63
2022/03/15 06:47:55;;;;;;;25.60;13.90;;;7.30;99.90;;;;;;5084654;28;20450;-58
2022/03/15 06:50:22;;;;;;;28.87;15.10;;;7.30;99.90;;;;;;5084204;28;20580;-63
2022/03/15 06:52:49;;;;;;;27.90;13.43;;;7.30;99.90;;;;;;5088088;28;20439;-59
2022/03/15 06:55:16;;;;;;;29.20;15.33;;;7.30;99.90;;;;;;5096343;28;20448;-65
2022/03/15 06:57:44;;;;;;;27.27;14.07;;;7.40;99.90;;;;;;5077647;28;20411;-63
2022/03/15 07:00:13;;;;;;;31.73;14.70;;;7.40;99.90;;;;;;5077183;28;20929;-64
2022/03/15 07:02:40;;;;;;;23.07;12.20;;;7.40;99.90;;;;;;5076019;28;20446;-64
2022/03/15 07:05:08;;;;;;;22.30;13.03;;;7.50;99.90;;;;;;5076746;28;20508;-62
2022/03/15 07:07:35;;;;;;;31.70;14.87;;;7.50;99.90;;;;;;5076687;28;20497;-62
2022/03/15 07:10:05;;;;;;;26.57;12.87;;;7.50;99.90;;;;;;5076300;28;20453;-61
2022/03/15 07:12:32;;;;;;;28.73;14.67;;;7.50;99.90;;;;;;5076899;28;20434;-61
2022/03/15 07:15:00;;;;;;;28.87;14.97;;;7.50;99.90;;;;;;5076518;28;20548;-60
2022/03/15 07:17:27;;;;;;;27.40;14.30;;;7.50;99.90;;;;;;5076471;28;20502;-65
2022/03/15 07:19:54;;;;;;;26.50;16.20;;;7.60;99.90;;;;;;5077561;28;20470;-59
2022/03/15 07:22:20;;;;;;;24.80;14.73;;;7.60;99.90;;;;;;5076200;28;20572;-58
2022/03/15 07:24:47;;;;;;;22.50;12.30;;;7.70;99.90;;;;;;5085182;28;20450;-56
2022/03/15 07:27:14;;;;;;;21.03;13.70;;;7.70;99.90;;;;;;5093384;28;20466;-57
2022/03/15 07:29:40;;;;;;;32.77;16.40;;;7.70;99.90;;;;;;5089090;28;20426;-57
2022/03/15 07:32:09;;;;;;;28.77;14.00;;;7.80;99.90;;;;;;5087689;28;20490;-58
2022/03/15 07:34:35;;;;;;;26.77;15.20;;;7.80;99.90;;;;;;5088445;28;20457;-58
2022/03/15 07:37:02;;;;;;;28.73;17.40;;;7.90;99.90;;;;;;5088683;28;20455;-56
2022/03/15 07:39:30;;;;;;;29.57;15.73;;;8.00;99.90;;;;;;5088066;28;20463;-57
2022/03/15 07:41:57;;;;;;;26.97;14.00;;;8.10;99.90;;;;;;5087837;28;20802;-56
2022/03/15 07:44:24;;;;;;;25.57;14.80;;;8.10;99.90;;;;;;5087996;28;20541;-59
2022/03/15 07:46:55;;;;;;;29.70;14.97;;;8.20;99.90;;;;;;5088623;28;20499;-58
2022/03/15 07:49:26;;;;;;;31.10;15.07;;;8.30;99.90;;;;;;5087787;28;20522;-51
2022/03/15 07:51:53;;;;;;;24.83;15.60;;;8.30;99.90;;;;;;5087382;28;20481;-56
2022/03/15 07:54:20;;;;;;;35.77;14.50;;;8.40;99.90;;;;;;5086452;28;20446;-54
2022/03/15 07:56:47;;;;;;;30.70;16.80;;;8.40;99.90;;;;;;5087756;28;20539;-58
2022/03/15 07:59:14;;;;;;;27.80;14.63;;;8.50;99.90;;;;;;5087759;28;20462;-61
2022/03/15 08:01:41;;;;;;;28.63;15.87;;;8.60;99.90;;;;;;5087030;28;20435;-58
2022/03/15 08:04:07;;;;;;;25.07;14.47;;;8.80;99.90;;;;;;5086822;28;20443;-59
2022/03/15 08:06:36;;;;;;;26.63;13.97;;;8.90;99.90;;;;;;5085608;28;20457;-58
2022/03/15 08:09:05;;;;;;;25.57;14.40;;;9.00;99.90;;;;;;5085553;28;20477;-56
2022/03/15 08:11:32;;;;;;;24.37;13.73;;;9.20;99.90;;;;;;5084676;28;20965;-59
2022/03/15 08:13:59;;;;;;;24.73;13.73;;;9.30;99.90;;;;;;5084582;28;20528;-56
2022/03/15 08:16:27;;;;;;;23.90;15.00;;;9.40;99.90;;;;;;5085671;28;20473;-59
2022/03/15 08:18:54;;;;;;;24.73;14.83;;;9.60;99.90;;;;;;5085099;28;20454;-60
2022/03/15 08:21:23;;;;;;;27.53;13.97;;;9.60;99.90;;;;;;5084576;28;20462;-57
2022/03/15 08:23:51;;;;;;;25.63;15.27;;;9.70;99.90;;;;;;5084406;28;20509;-59
2022/03/15 08:26:17;;;;;;;28.73;15.20;;;9.80;99.90;;;;;;5084518;28;20457;-60
2022/03/15 08:28:45;;;;;;;29.90;15.13;;;9.70;99.90;;;;;;5084486;28;20443;-60
2022/03/15 08:31:12;;;;;;;25.20;16.57;;;9.80;99.90;;;;;;5080421;28;20485;-58
2022/03/15 08:33:38;;;;;;;27.40;15.87;;;10.00;99.90;;;;;;5080361;28;20474;-59
2022/03/15 08:36:06;;;;;;;23.67;13.63;;;10.10;99.90;;;;;;5079257;28;20912;-58
2022/03/15 08:38:34;;;;;;;27.97;15.43;;;10.10;99.90;;;;;;5079510;28;20451;-60
2022/03/15 08:41:03;;;;;;;31.23;15.63;;;10.40;99.90;;;;;;5078432;28;20899;-58
2022/03/15 08:43:30;;;;;;;26.97;13.60;;;11.10;99.90;;;;;;5079117;28;20439;-59
2022/03/15 08:45:58;;;;;;;25.53;14.73;;;12.40;99.90;;;;;;5078056;28;20545;-59
2022/03/15 08:48:25;;;;;;;22.83;13.50;;;13.60;99.90;;;;;;5077449;28;20450;-56
2022/03/15 08:50:52;;;;;;;24.20;13.77;;;15.00;99.90;;;;;;5077111;28;20504;-59
2022/03/15 08:53:19;;;;;;;23.13;14.33;;;16.30;99.90;;;;;;5076371;28;20462;-59
2022/03/15 08:55:46;;;;;;;20.53;13.17;;;17.80;99.90;;;;;;5076148;28;20901;-59
2022/03/15 08:58:14;;;;;;;24.80;15.47;;;19.00;99.90;;;;;;5075542;28;20461;-60
2022/03/15 09:00:41;;;;;;;22.00;14.30;;;19.60;99.90;;;;;;5075404;28;20454;-61
2022/03/15 09:03:08;;;;;;;21.93;16.33;;;20.00;99.90;;;;;;5075385;28;20500;-59
2022/03/15 09:05:34;;;;;;;17.70;13.07;;;20.50;99.10;;;;;;5075448;28;20430;-56
2022/03/15 09:08:01;;;;;;;20.00;13.57;;;21.10;96.50;;;;;;5075437;28;20898;-59
2022/03/15 09:10:28;;;;;;;23.13;14.90;;;21.10;93.90;;;;;;5075241;28;20535;-59
2022/03/15 09:12:54;;;;;;;25.10;15.53;;;21.30;92.70;;;;;;5075192;28;20482;-59
2022/03/15 09:15:25;;;;;;;19.70;13.90;;;21.40;91.80;;;;;;5075040;28;20465;-56
2022/03/15 09:17:52;;;;;;;21.27;15.30;;;21.60;91.00;;;;;;5075331;28;20508;-60
2022/03/15 09:20:19;;;;;;;18.93;13.00;;;21.70;90.00;;;;;;5075561;28;20478;-61
2022/03/15 09:22:45;;;;;;;24.20;14.30;;;21.60;88.60;;;;;;5075086;28;20467;-63
2022/03/15 09:25:13;;;;;;;23.07;14.63;;;21.70;87.30;;;;;;5074761;28;20810;-58
2022/03/15 09:27:39;;;;;;;21.17;14.03;;;21.70;86.10;;;;;;5074785;28;20945;-59
2022/03/15 09:30:07;;;;;;;24.53;14.37;;;21.50;84.50;;;;;;5074824;28;20430;-58
2022/03/15 09:32:35;;;;;;;19.10;12.13;;;21.30;84.90;;;;;;5074939;28;20574;-60
2022/03/15 09:35:02;;;;;;;20.80;13.80;;;20.70;86.00;;;;;;5075280;28;20467;-59
2022/03/15 09:37:29;;;;;;;18.93;11.20;;;19.90;88.50;;;;;;5075656;28;20457;-58
2022/03/15 09:39:57;;;;;;;19.50;12.37;;;19.00;90.90;;;;;;5075414;28;20458;-59
2022/03/15 09:42:26;;;;;;;20.43;11.37;;;18.30;93.00;;;;;;5076102;28;20493;-59
2022/03/15 09:44:56;;;;;;;17.43;11.50;;;17.60;95.30;;;;;;5076048;28;20438;-58
2022/03/15 09:47:30;;;;;;;21.93;12.10;;;17.10;97.20;;;;;;5076423;28;20549;-60
2022/03/15 09:49:59;;;;;;;26.80;12.80;;;16.70;99.40;;;;;;5076651;28;20487;-56
2022/03/15 09:52:28;;;;;;;16.90;9.80;;;16.70;99.90;;;;;;5076792;28;20489;-59
2022/03/15 09:54:56;;;;;;;20.17;12.10;;;16.70;99.90;;;;;;5076138;28;20443;-59
2022/03/15 09:57:24;;;;;;;20.00;11.77;;;16.70;99.90;;;;;;5076114;28;20500;-58
2022/03/15 09:59:52;;;;;;;22.03;12.20;;;17.00;99.90;;;;;;5076104;28;20454;-59
2022/03/15 10:02:19;;;;;;;24.37;12.83;;;17.20;99.90;;;;;;5075751;28;20447;-59
2022/03/15 10:04:46;;;;;;;21.53;12.30;;;17.10;99.90;;;;;;5075761;28;20477;-58
2022/03/15 10:07:14;;;;;;;20.23;11.83;;;16.90;99.90;;;;;;5075754;28;20525;-55
2022/03/15 10:09:41;;;;;;;28.50;13.17;;;16.90;99.90;;;;;;5076385;28;20453;-57
2022/03/15 10:12:09;;;;;;;20.97;13.47;;;16.90;99.90;;;;;;5076002;28;20500;-59
2022/03/15 10:14:44;;;;;;;32.37;14.23;;;16.90;99.90;;;;;;5075702;28;20542;-60
2022/03/15 10:17:14;;;;;;;21.10;12.50;;;17.20;99.90;;;;;;5075405;28;20557;-57
2022/03/15 10:19:51;;;;;;;20.13;12.70;;;17.50;99.90;;;;;;5075989;28;20446;-59
2022/03/15 10:22:21;;;;;;;20.73;12.03;;;17.60;99.90;;;;;;5075873;28;20430;-58
2022/03/15 10:24:48;;;;;;;19.33;11.73;;;17.80;99.90;;;;;;5075245;28;20509;-58
2022/03/15 10:27:16;;;;;;;23.23;13.33;;;18.00;99.90;;;;;;5075553;28;20442;-59
2022/03/15 10:29:44;;;;;;;25.20;13.40;;;18.30;99.90;;;;;;5075566;28;20466;-58
2022/03/15 10:32:11;;;;;;;22.70;13.40;;;18.50;99.90;;;;;;5075347;28;20486;-59
2022/03/15 10:34:38;;;;;;;19.97;12.40;;;18.80;99.40;;;;;;5075420;28;20462;-58
2022/03/15 10:37:05;;;;;;;24.77;13.33;;;18.90;98.80;;;;;;5076313;28;20727;-57
2022/03/15 10:39:33;;;;;;;25.07;14.30;;;18.90;97.90;;;;;;5079335;28;20461;-59
2022/03/15 10:42:03;;;;;;;21.00;10.87;;;18.80;98.00;;;;;;5079285;28;20564;-55
2022/03/15 10:44:34;;;;;;;20.33;12.97;;;18.70;96.70;;;;;;5079747;28;20489;-59
2022/03/15 10:47:08;;;;;;;17.37;10.50;;;18.40;97.50;;;;;;5078649;28;20470;-59
2022/03/15 10:49:48;;;;;;;21.57;11.43;;;18.50;99.30;;;;;;5079152;28;20435;-58
2022/03/15 10:52:15;;;;;;;20.07;13.07;;;18.60;97.70;;;;;;5079581;28;20520;-59
2022/03/15 10:54:45;;;;;;;21.03;13.10;;;18.50;98.20;;;;;;5079427;28;20442;-59
2022/03/15 10:57:12;;;;;;;18.97;12.17;;;18.40;98.50;;;;;;5078673;28;20454;-58
2022/03/15 10:59:41;;;;;;;22.30;11.47;;;18.00;98.60;;;;;;5078776;28;20466;-63
2022/03/15 11:02:12;;;;;;;24.53;13.03;;;17.70;98.60;;;;;;5078495;28;20470;-58
2022/03/15 11:04:46;;;;;;;23.60;13.83;;;17.60;98.80;;;;;;5078623;28;20516;-59
2022/03/15 11:07:13;;;;;;;17.93;11.23;;;17.20;99.00;;;;;;5079002;28;20437;-58
2022/03/15 11:09:40;;;;;;;18.17;10.80;;;16.90;99.40;;;;;;5078853;28;20459;-58
2022/03/15 11:12:10;;;;;;;19.20;11.97;;;16.50;99.90;;;;;;5078894;28;20482;-59
2022/03/15 11:14:40;;;;;;;22.50;11.93;;;16.20;99.90;;;;;;5078778;28;20478;-57
2022/03/15 11:17:12;;;;;;;20.70;11.77;;;16.10;99.90;;;;;;5078780;28;20431;-58
2022/03/15 11:19:44;;;;;;;18.60;10.30;;;16.00;99.90;;;;;;5078801;28;20492;-58
2022/03/15 11:22:12;;;;;;;21.30;11.30;;;15.90;99.90;;;;;;5079360;28;20437;-60
2022/03/15 11:24:43;;;;;;;17.60;10.47;;;15.80;99.90;;;;;;5078805;28;20469;-58
2022/03/15 11:27:16;;;;;;;25.13;13.10;;;15.60;99.90;;;;;;5078580;28;20407;-59
2022/03/15 11:29:45;;;;;;;19.90;12.60;;;15.50;99.90;;;;;;5079122;28;20935;-58
2022/03/15 11:32:13;;;;;;;20.13;11.57;;;15.50;99.90;;;;;;5078501;28;20474;-58
2022/03/15 11:34:41;;;;;;;26.10;12.67;;;15.50;99.90;;;;;;5078599;28;20442;-59
2022/03/15 11:37:10;;;;;;;18.50;10.27;;;15.50;99.90;;;;;;5078435;28;20573;-58
2022/03/15 11:39:38;;;;;;;22.73;11.13;;;15.40;99.90;;;;;;5078265;28;20442;-59
2022/03/15 11:42:06;;;;;;;19.90;10.50;;;15.30;99.90;;;;;;5078381;28;20470;-59
2022/03/15 11:44:43;;;;;;;20.63;11.70;;;15.20;99.90;;;;;;5078397;28;20452;-58
2022/03/15 11:47:18;;;;;;;19.40;10.10;;;15.30;99.90;;;;;;5077964;28;20430;-56
2022/03/15 11:49:55;;;;;;;18.47;10.13;;;15.30;99.90;;;;;;5077967;28;20746;-60
2022/03/15 11:52:31;;;;;;;18.50;11.43;;;15.20;99.90;;;;;;5078113;28;20562;-55
2022/03/15 11:55:06;;;;;;;17.20;11.20;;;15.20;99.90;;;;;;5078011;28;20470;-59
2022/03/15 11:57:41;;;;;;;24.60;10.87;;;15.30;99.90;;;;;;5078074;28;20495;-59
2022/03/15 12:00:10;;;;;;;19.23;10.10;;;15.20;99.90;;;;;;5078539;28;20441;-58
2022/03/15 12:02:40;;;;;;;17.07;10.10;;;15.20;99.90;;;;;;5078523;28;20437;-59
2022/03/15 12:05:17;;;;;;;18.60;11.80;;;15.20;99.90;;;;;;5078626;28;20443;-57
2022/03/15 12:07:46;;;;;;;19.63;9.77;;;15.20;99.90;;;;;;5078710;28;20480;-57
2022/03/15 12:10:24;;;;;;;16.30;9.60;;;15.20;99.90;;;;;;5078390;28;20816;-57
2022/03/15 12:13:02;;;;;;;19.40;10.47;;;15.20;99.90;;;;;;5078109;28;20581;-58
2022/03/15 12:15:42;;;;;;;22.30;11.43;;;15.20;99.90;;;;;;5077533;28;20470;-55
2022/03/15 12:18:18;;;;;;;16.87;10.00;;;15.20;99.90;;;;;;5077921;28;20918;-58
2022/03/15 12:20:46;;;;;;;21.83;10.93;;;15.20;99.90;;;;;;5077966;28;20437;-59
2022/03/15 12:23:20;;;;;;;17.13;10.30;;;15.20;99.90;;;;;;5077704;28;20476;-59
2022/03/15 12:25:54;;;;;;;17.20;9.97;;;15.20;99.90;;;;;;5077478;28;20466;-57
2022/03/15 12:28:28;;;;;;;17.70;9.73;;;15.20;99.90;;;;;;5078475;28;20829;-57
2022/03/15 12:31:05;;;;;;;21.40;9.67;;;15.20;99.90;;;;;;5077590;28;20481;-59
2022/03/15 12:33:32;;;;;;;16.80;9.33;;;15.30;99.90;;;;;;5078105;28;20466;-58
2022/03/15 12:36:02;;;;;;;18.97;10.63;;;15.30;99.90;;;;;;5077710;28;20969;-59
2022/03/15 12:38:34;;;;;;;23.10;11.67;;;15.30;99.90;;;;;;5077850;28;20453;-55